Time;durP1;ratioP1;P1;durP2;ratioP2;P2;SDS_P1;SDS_P2;PMS_P1;PMS_P2;Temp;Humidity;BMP_temperature;BMP_pressure;BME280_temperature;BME280_humidity;BME280_pressure;Samples;Min_cycle;Max_cycle;Signal;HPM_P1;HPM_P2
2021/10/18 00:00:01;;;;;;;;;28.50;25.00;;;;;12.83;60.43;101795.69;4950138;28;45372;-48
2021/10/18 00:02:27;;;;;;;;;27.75;27.00;;;;;12.81;60.36;101807.28;4951444;28;45306;-51
2021/10/18 00:04:52;;;;;;;;;26.75;24.25;;;;;12.80;60.33;101806.44;4945343;28;45312;-51
2021/10/18 00:07:20;;;;;;;;;30.25;24.75;;;;;12.81;60.26;101808.13;4946973;28;45610;-50
2021/10/18 00:09:46;;;;;;;;;30.00;29.75;;;;;12.81;60.52;101800.19;4951460;28;46091;-54
2021/10/18 00:12:11;;;;;;;;;29.75;24.75;;;;;12.81;60.40;101802.00;4951786;28;45239;-53
2021/10/18 00:14:37;;;;;;;;;34.00;26.75;;;;;12.81;60.50;101807.28;4950290;28;45313;-49
2021/10/18 00:17:02;;;;;;;;;31.00;29.25;;;;;12.79;60.62;101804.69;4949795;28;45492;-51
2021/10/18 00:19:28;;;;;;;;;28.50;26.50;;;;;12.78;60.33;101807.41;4951946;28;45667;-49
2021/10/18 00:21:53;;;;;;;;;35.75;31.50;;;;;12.75;60.36;101807.59;4952144;28;45351;-48
2021/10/18 00:24:19;;;;;;;;;30.00;26.00;;;;;12.70;60.41;101809.59;4950777;28;45196;-50
2021/10/18 00:26:44;;;;;;;;;29.00;28.00;;;;;12.68;60.76;101809.69;4950035;28;45180;-48
2021/10/18 00:29:10;;;;;;;;;35.50;31.75;;;;;12.66;60.82;101808.91;4949391;28;45479;-48
2021/10/18 00:31:35;;;;;;;;;33.75;30.25;;;;;12.64;60.79;101808.16;4949739;28;45518;-53
2021/10/18 00:34:01;;;;;;;;;33.75;30.75;;;;;12.63;60.75;101805.56;4951147;28;45350;-52
2021/10/18 00:36:27;;;;;;;;;31.25;27.00;;;;;12.58;60.70;101805.81;4951213;28;45442;-48
2021/10/18 00:38:52;;;;;;;;;34.50;31.50;;;;;12.55;61.03;101803.28;4950533;28;45577;-50
2021/10/18 00:41:19;;;;;;;;;33.75;26.50;;;;;12.53;60.78;101806.03;4950110;28;45408;-49
2021/10/18 00:43:47;;;;;;;;;33.75;29.00;;;;;12.53;61.03;101800.75;4948762;28;45535;-50
2021/10/18 00:46:14;;;;;;;;;33.50;26.75;;;;;12.53;60.92;101802.53;4946135;28;45760;-51
2021/10/18 00:48:40;;;;;;;;;33.50;24.50;;;;;12.54;61.08;101812.16;4943566;28;46140;-50
2021/10/18 00:51:06;;;;;;;;;37.00;31.75;;;;;12.53;60.92;101806.03;4950276;28;45718;-50
2021/10/18 00:53:34;;;;;;;;;30.50;28.75;;;;;12.51;61.01;101815.81;4951498;28;45470;-51
2021/10/18 00:55:59;;;;;;;;;30.75;28.00;;;;;12.49;61.12;101807.13;4950317;28;45452;-50
2021/10/18 00:58:25;;;;;;;;;32.50;31.00;;;;;12.48;60.97;101816.00;4951139;28;46058;-50
2021/10/18 01:00:51;;;;;;;;;33.50;29.00;;;;;12.47;61.18;101816.03;4950174;28;45456;-48
2021/10/18 01:03:19;;;;;;;;;30.25;26.25;;;;;12.44;61.09;101814.41;4952111;28;45463;-48
2021/10/18 01:05:44;;;;;;;;;40.25;34.00;;;;;12.46;61.25;101820.47;4944208;28;45394;-53
2021/10/18 01:08:10;;;;;;;;;34.50;31.00;;;;;12.42;61.42;101813.66;4943288;28;46288;-54
2021/10/18 01:10:36;;;;;;;;;36.00;30.00;;;;;12.39;61.39;101823.50;4945115;28;45235;-53
2021/10/18 01:13:03;;;;;;;;;29.50;27.25;;;;;12.37;61.85;101820.94;4945145;28;45552;-52
2021/10/18 01:15:28;;;;;;;;;31.50;30.00;;;;;12.33;61.71;101818.53;4945232;28;45362;-51
2021/10/18 01:17:54;;;;;;;;;33.00;30.25;;;;;12.33;61.70;101814.09;4944769;28;45666;-55
2021/10/18 01:20:34;;;;;;;;;36.75;29.00;;;;;12.33;61.78;101816.75;4944548;28;45490;-53
2021/10/18 01:23:00;;;;;;;;;36.50;28.00;;;;;12.32;61.92;101819.44;4944927;28;45237;-53
2021/10/18 01:25:26;;;;;;;;;34.00;28.75;;;;;12.28;62.13;101813.47;4945125;28;45476;-51
2021/10/18 01:27:52;;;;;;;;;35.75;31.00;;;;;12.23;61.98;101804.91;4944696;28;45337;-54
2021/10/18 01:30:18;;;;;;;;;28.00;26.50;;;;;12.19;62.28;101808.63;4944933;28;45238;-52
2021/10/18 01:32:44;;;;;;;;;34.50;29.50;;;;;12.12;62.11;101812.50;4944935;28;45550;-51
2021/10/18 01:35:11;;;;;;;;;39.50;32.50;;;;;12.07;62.22;101818.00;4944655;28;45333;-53
2021/10/18 01:37:37;;;;;;;;;29.00;22.75;;;;;12.02;62.16;101812.97;4944671;28;45368;-53
2021/10/18 01:40:11;;;;;;;;;34.75;27.75;;;;;11.97;62.49;101820.22;4944443;28;45632;-53
2021/10/18 01:42:38;;;;;;;;;39.00;32.50;;;;;11.94;62.32;101816.91;4944673;28;45332;-52
2021/10/18 01:45:06;;;;;;;;;34.75;31.50;;;;;11.91;62.69;101809.09;4944828;28;45249;-53
2021/10/18 01:47:31;;;;;;;;;32.50;29.25;;;;;11.87;62.83;101802.28;4944166;28;46406;-53
2021/10/18 01:49:57;;;;;;;;;34.75;28.75;;;;;11.84;62.79;101799.75;4944138;28;45303;-53
2021/10/18 01:52:23;;;;;;;;;33.00;30.00;;;;;11.82;63.21;101802.47;4944509;28;45324;-53
2021/10/18 01:54:49;;;;;;;;;37.25;30.50;;;;;11.82;62.92;101794.56;4944613;28;45456;-53
2021/10/18 01:57:15;;;;;;;;;33.50;31.25;;;;;11.84;62.72;101790.06;4944237;28;45481;-54
2021/10/18 01:59:41;;;;;;;;;38.50;32.00;;;;;11.88;63.06;101781.06;4944493;28;45393;-54
2021/10/18 02:02:07;;;;;;;;;31.75;27.00;;;;;11.91;62.79;101778.28;4944119;28;45364;-52
2021/10/18 02:04:32;;;;;;;;;34.25;29.75;;;;;11.92;62.78;101789.69;4943414;28;45297;-51
2021/10/18 02:06:58;;;;;;;;;33.50;22.75;;;;;11.90;62.52;101791.56;4944097;28;46008;-52
2021/10/18 02:09:24;;;;;;;;;29.50;28.75;;;;;11.90;62.44;101797.69;4944234;28;45172;-52
2021/10/18 02:11:49;;;;;;;;;43.25;33.25;;;;;11.92;62.49;101785.25;4944239;28;45255;-54
2021/10/18 02:14:15;;;;;;;;;36.25;34.25;;;;;11.93;62.44;101784.34;4944481;28;45468;-52
2021/10/18 02:16:40;;;;;;;;;34.25;30.50;;;;;11.92;62.34;101787.03;4944007;28;45892;-55
2021/10/18 02:19:06;;;;;;;;;31.50;29.75;;;;;11.93;62.50;101784.34;4944095;28;45165;-53
2021/10/18 02:21:32;;;;;;;;;29.50;26.00;;;;;11.92;62.53;101782.63;4944083;28;45417;-49
2021/10/18 02:23:57;;;;;;;;;37.00;32.25;;;;;11.93;62.47;101786.16;4944129;28;45347;-50
2021/10/18 02:26:23;;;;;;;;;37.00;27.75;;;;;11.92;62.60;101773.84;4943900;28;45793;-54
2021/10/18 02:28:48;;;;;;;;;33.50;28.75;;;;;11.92;62.71;101777.34;4943924;28;45302;-53
2021/10/18 02:31:14;;;;;;;;;36.25;33.50;;;;;11.91;62.75;101780.06;4944091;28;45363;-52
2021/10/18 02:33:39;;;;;;;;;34.75;29.00;;;;;11.90;62.80;101776.56;4943929;28;45381;-53
2021/10/18 02:36:05;;;;;;;;;34.75;30.75;;;;;11.91;62.87;101770.34;4943664;28;45572;-48
2021/10/18 02:38:30;;;;;;;;;31.50;29.50;;;;;11.92;62.45;101769.41;4943786;28;45453;-53
2021/10/18 02:40:56;;;;;;;;;44.00;30.00;;;;;11.92;62.74;101766.78;4943621;28;45487;-52
2021/10/18 02:43:21;;;;;;;;;24.00;23.25;;;;;11.93;62.82;101768.50;4943995;28;45624;-51
2021/10/18 02:45:48;;;;;;;;;27.25;21.75;;;;;11.88;62.81;101770.50;4943289;28;46276;-53
2021/10/18 02:48:15;;;;;;;;;29.50;26.50;;;;;11.86;63.17;101768.88;4943380;28;45214;-51
2021/10/18 02:50:40;;;;;;;;;29.00;27.50;;;;;11.86;63.13;101768.88;4943647;28;45302;-49
2021/10/18 02:53:06;;;;;;;;;34.75;31.25;;;;;11.86;63.17;101759.19;4943651;28;45226;-49
2021/10/18 02:55:32;;;;;;;;;30.00;27.00;;;;;11.83;63.35;101759.31;4943497;28;46238;-54
2021/10/18 02:57:57;;;;;;;;;28.25;25.75;;;;;11.84;63.00;101758.38;4943531;28;45239;-49
2021/10/18 03:00:23;;;;;;;;;30.00;24.75;;;;;11.84;62.99;101755.72;4943580;28;45227;-50
2021/10/18 03:02:48;;;;;;;;;35.25;33.00;;;;;11.87;62.98;101752.97;4943629;28;45317;-49
2021/10/18 03:05:13;;;;;;;;;29.75;27.50;;;;;11.89;63.13;101763.44;4942970;28;45378;-51
2021/10/18 03:07:39;;;;;;;;;32.50;28.00;;;;;11.89;62.93;101747.59;4943481;28;45472;-50
2021/10/18 03:10:05;;;;;;;;;30.00;26.50;;;;;11.90;63.01;101750.16;4943348;28;45296;-50
2021/10/18 03:12:31;;;;;;;;;33.00;30.00;;;;;11.93;63.34;101744.75;4943703;28;45266;-50
2021/10/18 03:14:57;;;;;;;;;25.50;24.50;;;;;11.94;63.31;101743.81;4942711;28;45422;-54
2021/10/18 03:17:22;;;;;;;;;30.50;25.50;;;;;11.97;62.91;101745.44;4942533;28;45479;-52
2021/10/18 03:19:48;;;;;;;;;31.75;29.50;;;;;11.98;63.03;101742.72;4942824;28;45342;-54
2021/10/18 03:22:13;;;;;;;;;31.50;28.75;;;;;11.99;62.99;101746.22;4943325;28;45288;-54
2021/10/18 03:24:39;;;;;;;;;30.50;25.00;;;;;11.99;63.13;101755.00;4942938;28;45446;-53
2021/10/18 03:27:04;;;;;;;;;27.75;26.75;;;;;11.99;63.23;101749.72;4943082;28;45251;-55
2021/10/18 03:29:30;;;;;;;;;35.25;27.50;;;;;12.01;63.12;101749.66;4943066;28;45364;-51
2021/10/18 03:31:55;;;;;;;;;28.25;27.75;;;;;12.01;63.03;101750.50;4943246;28;45214;-53
2021/10/18 03:34:20;;;;;;;;;27.00;26.25;;;;;12.04;63.27;101757.41;4942540;28;45540;-51
2021/10/18 03:36:46;;;;;;;;;28.50;23.75;;;;;12.05;63.32;101758.28;4943105;28;45337;-53
2021/10/18 03:39:11;;;;;;;;;27.75;24.25;;;;;12.05;62.92;101755.63;4942807;28;45340;-54
2021/10/18 03:41:37;;;;;;;;;27.00;22.50;;;;;12.04;63.17;101754.78;4942987;28;45312;-54
2021/10/18 03:44:03;;;;;;;;;28.00;23.75;;;;;12.03;63.14;101761.00;4942642;28;45452;-54
2021/10/18 03:46:28;;;;;;;;;29.50;26.00;;;;;12.03;63.39;101763.63;4942362;28;45442;-51
2021/10/18 03:48:54;;;;;;;;;34.00;27.75;;;;;12.03;63.47;101758.34;4942655;28;45305;-54
2021/10/18 03:51:19;;;;;;;;;26.25;25.00;;;;;12.04;63.33;101757.41;4942665;28;45400;-51
2021/10/18 03:53:45;;;;;;;;;30.50;23.25;;;;;12.05;63.45;101771.47;4942445;28;45783;-53
2021/10/18 03:56:10;;;;;;;;;37.25;32.50;;;;;12.05;63.31;101772.34;4942537;28;45331;-52
2021/10/18 03:58:35;;;;;;;;;30.00;29.00;;;;;12.04;63.81;101767.97;4942680;28;45406;-53
2021/10/18 04:01:05;;;;;;;;;33.00;26.25;;;;;12.02;63.81;101769.84;4942587;28;45283;-53
2021/10/18 04:03:31;;;;;;;;;33.50;28.50;;;;;12.02;63.80;101773.34;4942310;28;45510;-55
2021/10/18 04:05:56;;;;;;;;;37.75;31.00;;;;;12.02;64.25;101775.13;4942437;28;45343;-53
2021/10/18 04:08:24;;;;;;;;;34.00;26.25;;;;;12.00;63.91;101775.19;4942415;28;45473;-52
2021/10/18 04:10:50;;;;;;;;;32.50;29.00;;;;;12.00;64.37;101775.19;4942492;28;45399;-50
2021/10/18 04:13:15;;;;;;;;;40.25;26.25;;;;;12.01;63.96;101779.56;4942402;28;45325;-52
2021/10/18 04:15:40;;;;;;;;;37.75;32.00;;;;;12.02;63.86;101772.50;4942363;28;45396;-53
2021/10/18 04:18:06;;;;;;;;;35.25;27.00;;;;;12.01;63.99;101779.56;4942317;28;45302;-54
2021/10/18 04:20:31;;;;;;;;;32.00;30.00;;;;;11.99;63.56;101778.75;4942651;28;45323;-54
2021/10/18 04:22:57;;;;;;;;;43.75;33.50;;;;;11.96;64.04;101780.69;4942042;28;45439;-54
2021/10/18 04:25:22;;;;;;;;;32.25;29.75;;;;;11.92;63.94;101781.75;4942198;28;45376;-54
2021/10/18 04:27:48;;;;;;;;;36.75;32.00;;;;;11.90;64.20;101784.47;4945197;28;45302;-51
2021/10/18 04:30:14;;;;;;;;;30.00;29.50;;;;;11.90;63.99;101784.47;4945842;28;45254;-52
2021/10/18 04:32:39;;;;;;;;;32.50;27.25;;;;;11.90;64.01;101794.19;4945466;28;45307;-52
2021/10/18 04:35:05;;;;;;;;;40.25;25.00;;;;;11.88;63.98;101789.00;4945254;28;45334;-49
2021/10/18 04:37:31;;;;;;;;;43.00;31.50;;;;;11.84;64.51;101786.56;4945772;28;45215;-53
2021/10/18 04:39:56;;;;;;;;;42.00;32.25;;;;;11.79;64.17;101802.59;4945376;28;45275;-49
2021/10/18 04:42:22;;;;;;;;;37.75;32.00;;;;;11.78;64.23;101802.69;4945492;28;45445;-50
2021/10/18 04:44:47;;;;;;;;;33.00;31.00;;;;;11.78;64.26;101805.31;4945495;28;45267;-48
2021/10/18 04:47:13;;;;;;;;;42.50;31.50;;;;;11.78;63.96;101797.41;4945342;28;45484;-51
2021/10/18 04:49:38;;;;;;;;;35.25;33.25;;;;;11.73;64.27;101795.81;4944377;28;45644;-49
2021/10/18 04:52:04;;;;;;;;;35.50;33.50;;;;;11.70;64.33;101803.91;4945338;28;45868;-50
2021/10/18 04:54:29;;;;;;;;;33.50;30.50;;;;;11.71;64.56;101802.09;4945200;28;45316;-52
2021/10/18 04:56:55;;;;;;;;;30.25;29.00;;;;;11.70;64.45;101803.91;4945476;28;45268;-52
2021/10/18 04:59:20;;;;;;;;;33.75;30.75;;;;;11.70;64.33;101813.59;4945317;28;45282;-51
2021/10/18 05:01:46;;;;;;;;;30.75;28.25;;;;;11.68;64.58;101816.28;4945240;28;45418;-50
2021/10/18 05:04:11;;;;;;;;;30.50;26.50;;;;;11.69;64.94;101815.38;4944666;28;45318;-52
2021/10/18 05:06:37;;;;;;;;;47.00;34.00;;;;;11.70;64.74;101816.25;4945245;28;45313;-49
2021/10/18 05:09:03;;;;;;;;;42.75;28.50;;;;;11.69;64.97;101828.59;4945056;28;45507;-50
2021/10/18 05:11:28;;;;;;;;;31.50;26.75;;;;;11.70;64.97;101816.25;4944423;28;45312;-64
2021/10/18 05:13:54;;;;;;;;;30.00;28.25;;;;;11.73;65.24;101819.56;4945046;28;45429;-59
2021/10/18 05:16:19;;;;;;;;;18.75;17.25;;;;;11.73;64.96;101827.50;4945106;28;45322;-59
2021/10/18 05:18:45;;;;;;;;;32.50;26.50;;;;;11.74;65.21;101828.34;4944855;28;45314;-59
2021/10/18 05:21:10;;;;;;;;;32.50;26.25;;;;;11.76;65.04;101826.47;4944877;28;45223;-58
2021/10/18 05:23:36;;;;;;;;;23.75;21.50;;;;;11.79;65.23;101830.78;4944664;28;45345;-58
2021/10/18 05:26:02;;;;;;;;;24.25;23.00;;;;;11.80;65.23;101827.22;4944958;28;45208;-56
2021/10/18 05:28:27;;;;;;;;;34.25;24.75;;;;;11.79;65.26;101826.38;4944698;28;45498;-58
2021/10/18 05:30:53;;;;;;;;;30.25;25.25;;;;;11.75;65.26;101820.34;4944820;28;45188;-58
2021/10/18 05:33:18;;;;;;;;;34.75;27.00;;;;;11.74;65.27;101818.66;4944559;28;45542;-63
2021/10/18 05:35:46;;;;;;;;;35.00;25.50;;;;;11.74;65.41;101823.06;4944838;28;45581;-64
2021/10/18 05:38:16;;;;;;;;;31.75;22.00;;;;;11.75;65.35;101822.13;4939260;28;45508;-63
2021/10/18 05:40:41;;;;;;;;;32.00;25.50;;;;;11.76;65.55;101821.22;4938324;28;46221;-61
2021/10/18 05:43:06;;;;;;;;;28.50;23.75;;;;;11.78;65.28;101815.88;4941536;28;45231;-65
2021/10/18 05:45:33;;;;;;;;;27.25;23.50;;;;;11.79;65.36;101818.44;4938863;28;45227;-61
2021/10/18 05:48:04;;;;;;;;;35.25;30.50;;;;;11.80;65.26;101817.53;4947041;28;45587;-62
2021/10/18 05:50:33;;;;;;;;;37.75;34.75;;;;;11.83;65.68;101814.75;4945859;28;45414;-66
2021/10/18 05:52:58;;;;;;;;;40.75;30.75;;;;;11.86;65.26;101814.63;4943559;28;45242;-63
2021/10/18 05:55:24;;;;;;;;;42.50;33.25;;;;;11.88;65.33;101820.69;4939958;28;45466;-61
2021/10/18 05:57:54;;;;;;;;;34.25;31.25;;;;;11.90;65.42;101825.88;4943788;28;45346;-61
2021/10/18 06:00:21;;;;;;;;;38.50;35.25;;;;;11.92;65.26;101824.88;4943785;28;45249;-61
2021/10/18 06:02:47;;;;;;;;;38.00;31.75;;;;;11.94;65.08;101828.31;4948742;28;45440;-61
2021/10/18 06:05:13;;;;;;;;;34.50;30.75;;;;;11.96;65.19;101830.88;4953928;28;45252;-62
2021/10/18 06:07:38;;;;;;;;;33.00;26.50;;;;;11.94;65.23;101830.94;4953345;28;45204;-60
2021/10/18 06:10:06;;;;;;;;;39.50;27.50;;;;;11.93;65.21;101834.53;4949046;28;46401;-60
2021/10/18 06:12:32;;;;;;;;;23.25;23.25;;;;;11.93;65.20;101838.94;4944723;28;45475;-61
2021/10/18 06:14:57;;;;;;;;;34.25;29.25;;;;;11.93;65.36;101837.16;4953714;28;45482;-61
2021/10/18 06:17:23;;;;;;;;;28.50;26.75;;;;;11.93;65.24;101842.44;4953103;28;45400;-60
2021/10/18 06:19:48;;;;;;;;;27.00;25.50;;;;;11.94;65.21;101843.31;4951119;28;45382;-60
2021/10/18 06:22:14;;;;;;;;;31.25;26.00;;;;;11.96;65.21;101847.56;4952336;28;45430;-60
2021/10/18 06:24:39;;;;;;;;;21.75;21.25;;;;;11.99;65.20;101852.69;4954111;28;45435;-60
2021/10/18 06:27:05;;;;;;;;;29.75;26.25;;;;;12.00;65.62;101841.19;4953360;28;45373;-60
2021/10/18 06:29:31;;;;;;;;;32.75;26.00;;;;;12.00;65.12;101843.84;4952470;28;45401;-60
2021/10/18 06:31:57;;;;;;;;;29.00;27.50;;;;;12.00;65.22;101843.84;4952737;28;45275;-60
2021/10/18 06:34:22;;;;;;;;;26.50;24.25;;;;;12.00;65.14;101848.28;4950761;28;45374;-60
2021/10/18 06:36:48;;;;;;;;;34.50;25.75;;;;;12.02;64.98;101846.44;4953307;28;45221;-60
2021/10/18 06:39:13;;;;;;;;;29.00;25.50;;;;;12.03;65.35;101842.88;4952847;28;45453;-61
2021/10/18 06:41:39;;;;;;;;;33.00;26.25;;;;;12.05;65.01;101848.06;4953850;28;45468;-61
2021/10/18 06:44:04;;;;;;;;;23.25;23.25;;;;;12.08;65.30;101847.91;4951849;28;45580;-60
2021/10/18 06:46:30;;;;;;;;;25.50;22.50;;;;;12.12;65.09;101849.47;4951507;28;45405;-60
2021/10/18 06:48:55;;;;;;;;;29.75;22.00;;;;;12.17;65.25;101852.78;4948303;28;46205;-60
2021/10/18 06:51:21;;;;;;;;;24.00;22.25;;;;;12.19;64.94;101853.53;4951470;28;45319;-61
2021/10/18 06:53:51;;;;;;;;;27.75;23.00;;;;;12.25;65.08;101859.41;4943061;28;45501;-60
2021/10/18 06:56:16;;;;;;;;;29.75;25.25;;;;;12.30;65.17;101856.50;4943593;28;45441;-61
2021/10/18 06:58:41;;;;;;;;;24.25;23.25;;;;;12.35;65.09;101856.31;4943273;28;45989;-61
2021/10/18 07:01:07;;;;;;;;;30.50;25.25;;;;;12.40;64.81;101859.56;4943468;28;45359;-61
2021/10/18 07:03:32;;;;;;;;;24.00;21.25;;;;;12.41;64.71;101859.50;4942707;28;45322;-61
2021/10/18 07:06:01;;;;;;;;;25.50;24.00;;;;;12.43;64.63;101862.91;4943502;28;45255;-61
2021/10/18 07:08:26;;;;;;;;;36.75;31.00;;;;;12.47;64.59;101867.09;4942661;28;45531;-61
2021/10/18 07:10:52;;;;;;;;;31.25;24.00;;;;;12.52;64.66;101866.91;4943098;28;45351;-61
2021/10/18 07:13:17;;;;;;;;;29.75;26.00;;;;;12.55;64.59;101870.22;4942928;28;45440;-61
2021/10/18 07:15:43;;;;;;;;;14.75;11.75;;;;;12.58;64.51;101870.09;4943097;28;45307;-61
2021/10/18 07:18:09;;;;;;;;;29.00;23.50;;;;;12.64;64.36;101873.34;4942719;28;45548;-60
2021/10/18 07:20:34;;;;;;;;;35.50;28.00;;;;;12.68;64.49;101878.41;4943242;28;45224;-60
2021/10/18 07:23:01;;;;;;;;;29.75;24.50;;;;;12.72;64.40;101877.34;4943108;28;45179;-61
2021/10/18 07:25:27;;;;;;;;;23.25;22.75;;;;;12.75;64.29;101865.75;4942011;28;45437;-61
2021/10/18 07:27:53;;;;;;;;;29.00;22.50;;;;;12.78;64.21;101865.59;4942979;28;45350;-61
2021/10/18 07:30:19;;;;;;;;;27.50;25.50;;;;;12.79;64.09;101870.78;4943154;28;45449;-61
2021/10/18 07:32:45;;;;;;;;;25.25;24.00;;;;;12.84;64.23;101867.94;4943080;28;45346;-61
2021/10/18 07:35:13;;;;;;;;;25.75;21.00;;;;;12.89;64.20;101875.63;4943153;28;45361;-61
2021/10/18 07:37:40;;;;;;;;;25.50;21.50;;;;;12.96;64.03;101874.41;4942891;28;45343;-62
2021/10/18 07:40:07;;;;;;;;;30.50;24.75;;;;;12.98;63.89;101864.59;4942657;28;45320;-61
2021/10/18 07:42:32;;;;;;;;;32.00;25.25;;;;;13.05;64.15;101873.94;4942754;28;45407;-62
2021/10/18 07:44:58;;;;;;;;;23.25;19.50;;;;;13.08;63.87;101877.25;4941950;28;45478;-61
2021/10/18 07:47:25;;;;;;;;;30.75;25.50;;;;;13.12;64.07;101865.59;4942568;28;45336;-61
2021/10/18 07:49:51;;;;;;;;;25.50;20.50;;;;;13.21;63.89;101869.56;4942679;28;45312;-61
2021/10/18 07:52:18;;;;;;;;;32.75;26.75;;;;;13.25;63.59;101859.69;4942924;28;45352;-61
2021/10/18 07:54:46;;;;;;;;;24.75;21.75;;;;;13.29;63.69;101867.38;4942941;28;45353;-62
2021/10/18 07:57:11;;;;;;;;;26.00;22.00;;;;;13.33;63.70;101865.41;4942376;28;46211;-61
2021/10/18 07:59:37;;;;;;;;;32.00;25.00;;;;;13.33;63.45;101868.91;4942830;28;45220;-61
2021/10/18 08:02:02;;;;;;;;;24.50;23.75;;;;;13.37;63.48;101875.78;4942365;28;45163;-61
2021/10/18 08:04:28;;;;;;;;;29.75;25.25;;;;;13.39;63.69;101884.47;4942471;28;45577;-62
2021/10/18 08:06:53;;;;;;;;;41.50;31.25;;;;;13.44;63.80;101883.41;4942259;28;45238;-61
2021/10/18 08:09:20;;;;;;;;;33.25;26.75;;;;;13.45;63.74;101887.75;4942445;28;45409;-61
2021/10/18 08:11:46;;;;;;;;;34.75;25.25;;;;;13.51;63.68;101882.09;4942397;28;45358;-61
2021/10/18 08:14:11;;;;;;;;;25.50;23.50;;;;;13.56;63.70;101886.22;4942702;28;45300;-61
2021/10/18 08:16:37;;;;;;;;;26.50;22.25;;;;;13.62;63.60;101882.41;4942371;28;46003;-61
2021/10/18 08:19:02;;;;;;;;;25.50;21.25;;;;;13.65;63.52;101883.09;4942205;28;45322;-61
2021/10/18 08:21:28;;;;;;;;;27.50;26.25;;;;;13.70;63.38;101896.09;4942353;28;45369;-61
2021/10/18 08:23:53;;;;;;;;;27.00;23.50;;;;;13.75;63.38;101902.00;4942334;28;45372;-62
2021/10/18 08:26:19;;;;;;;;;37.75;28.00;;;;;13.77;63.38;101899.25;4941894;28;45236;-61
2021/10/18 08:28:45;;;;;;;;;26.25;20.50;;;;;13.84;63.30;101906.78;4942146;28;45251;-61
2021/10/18 08:31:11;;;;;;;;;27.00;25.25;;;;;13.90;63.09;101906.47;4942104;28;45490;-61
2021/10/18 08:33:37;;;;;;;;;27.75;24.25;;;;;13.97;62.89;101899.00;4942426;28;45239;-61
2021/10/18 08:36:05;;;;;;;;;29.00;23.75;;;;;14.03;63.03;101911.94;4941920;28;45976;-62
2021/10/18 08:46:26;;;;;;;;;31.50;24.25;;;;;14.39;62.10;101884.34;4941868;28;45584;-61
2021/10/18 08:48:54;;;;;;;;;34.75;28.50;;;;;14.39;62.15;101876.38;4941520;28;45316;-61
2021/10/18 08:51:20;;;;;;;;;31.50;27.00;;;;;14.36;62.13;101880.03;4936615;28;45549;-62
2021/10/18 08:53:46;;;;;;;;;31.25;24.75;;;;;14.39;62.21;101890.47;4941458;28;45217;-61
2021/10/18 08:56:12;;;;;;;;;32.25;28.25;;;;;14.43;61.97;101880.53;4940190;28;45369;-62
2021/10/18 08:58:37;;;;;;;;;32.25;28.75;;;;;14.46;62.16;101875.13;4956199;28;45268;-62
2021/10/18 09:01:03;;;;;;;;;28.75;25.75;;;;;14.51;61.95;101879.19;4941726;28;45247;-61
2021/10/18 09:03:32;;;;;;;;;29.25;22.00;;;;;14.58;62.11;101884.16;4941478;28;45286;-62
2021/10/18 09:06:20;;;;;;;;;29.00;26.50;;;;;14.63;62.26;101885.59;4941266;28;45453;-63
2021/10/18 09:08:50;;;;;;;;;30.75;23.75;;;;;14.68;61.98;101878.22;4941332;28;45254;-62
2021/10/18 09:11:21;;;;;;;;;30.50;27.75;;;;;14.74;61.83;101869.91;4941439;28;45411;-60
2021/10/18 09:13:53;;;;;;;;;30.00;27.25;;;;;14.80;61.85;101860.75;4944063;28;45347;-61
2021/10/18 09:16:29;;;;;;;;;30.75;26.25;;;;;14.82;61.96;101850.88;4944774;28;45307;-61
2021/10/18 09:19:11;;;;;;;;;26.00;23.25;;;;;14.89;62.04;101854.03;4944340;28;45425;-62
2021/10/18 09:21:51;;;;;;;;;24.00;22.50;;;;;14.93;61.56;101856.44;4947068;28;45314;-61
2021/10/18 09:24:38;;;;;;;;;28.50;25.00;;;;;14.98;61.56;101858.78;4944652;28;45458;-62
2021/10/18 09:27:07;;;;;;;;;35.00;27.75;;;;;15.00;61.88;101856.88;4944655;28;46127;-63
2021/10/18 09:29:44;;;;;;;;;33.50;26.75;;;;;15.06;61.74;101860.03;4944577;28;45404;-60
2021/10/18 09:32:21;;;;;;;;;31.75;25.25;;;;;15.13;62.07;101864.97;4944365;28;45326;-62
2021/10/18 09:34:47;;;;;;;;;26.50;23.00;;;;;15.15;61.88;101871.88;4944398;28;45418;-60
2021/10/18 09:37:15;;;;;;;;;32.25;29.50;;;;;15.18;61.71;101874.38;4944493;28;45350;-62
2021/10/18 09:39:47;;;;;;;;;28.75;24.00;;;;;15.22;61.77;101864.41;4943953;28;45373;-61
2021/10/18 09:42:14;;;;;;;;;24.50;22.25;;;;;15.25;61.21;101856.28;4944200;28;45412;-61
2021/10/18 09:45:22;;;;;;;;;25.50;23.00;;;;;15.28;61.59;101859.59;4944464;28;45677;-62
2021/10/18 10:52:42;;;;;;;;;39.50;34.50;;;;;16.46;60.84;101847.66;4949824;28;45504;-62
2021/10/18 10:55:27;;;;;;;;;35.25;31.75;;;;;16.63;60.70;101856.31;4949466;28;45511;-60
2021/10/18 10:57:56;;;;;;;;;39.00;30.00;;;;;16.77;60.49;101850.09;4951028;28;45499;-62
2021/10/18 11:00:40;;;;;;;;;35.25;31.50;;;;;16.87;60.35;101851.16;4952028;28;45223;-61
2021/10/18 11:03:23;;;;;;;;;30.25;27.00;;;;;16.94;60.31;101848.00;4949235;28;45295;-61
2021/10/18 11:06:04;;;;;;;;;33.25;32.00;;;;;17.00;60.25;101838.75;4950509;28;46319;-63
2021/10/18 11:08:42;;;;;;;;;49.25;36.25;;;;;17.02;60.21;101836.81;4951742;28;46447;-60
2021/10/18 11:11:23;;;;;;;;;42.25;30.50;;;;;17.06;60.10;101832.97;4950444;28;45289;-63
2021/10/18 11:13:55;;;;;;;;;39.50;30.25;;;;;17.11;60.35;101835.31;4950359;28;45387;-62
2021/10/18 11:16:26;;;;;;;;;34.50;31.50;;;;;17.14;60.06;101845.75;4951131;28;46489;-59
2021/10/18 11:18:59;;;;;;;;;31.25;29.75;;;;;17.20;60.10;101840.84;4948644;28;45475;-60
2021/10/18 11:21:35;;;;;;;;;29.00;28.00;;;;;17.26;60.07;101845.75;4953199;28;45338;-61
2021/10/18 11:24:09;;;;;;;;;33.50;28.75;;;;;17.30;60.08;101854.41;4952411;28;45576;-63
2021/10/18 11:26:40;;;;;;;;;30.75;28.50;;;;;17.36;60.29;101858.44;4952181;28;46040;-60
2021/10/18 11:29:08;;;;;;;;;31.50;29.25;;;;;17.38;60.02;101865.38;4948304;28;45259;-60
2021/10/18 11:31:40;;;;;;;;;39.00;33.75;;;;;17.45;60.19;101845.31;4950146;28;45295;-61
2021/10/18 11:34:09;;;;;;;;;34.75;30.50;;;;;17.49;60.42;101843.31;4947928;28;45547;-60
2021/10/18 11:36:38;;;;;;;;;27.75;26.75;;;;;17.54;60.42;101846.50;4952055;28;45449;-61
2021/10/18 11:39:22;;;;;;;;;30.25;26.75;;;;;17.61;60.42;101839.75;4951700;28;45393;-61
2021/10/18 11:42:09;;;;;;;;;19.75;16.00;;;;;17.65;60.18;101822.59;4952687;28;45401;-60
2021/10/18 11:44:43;;;;;;;;;33.25;28.25;;;;;17.71;60.35;101824.84;4950401;28;45565;-59
2021/10/18 11:47:31;;;;;;;;;34.75;31.00;;;;;17.77;60.12;101828.88;4950103;28;46243;-61
2021/10/18 11:50:03;;;;;;;;;35.50;32.75;;;;;17.82;60.28;101808.94;4950780;28;45406;-61
2021/10/18 11:52:29;;;;;;;;;26.00;24.25;;;;;17.85;60.37;101803.41;4947538;28;45456;-60
2021/10/18 11:54:54;;;;;;;;;29.75;24.50;;;;;17.88;60.42;101788.97;4949643;28;45234;-61
2021/10/18 11:57:20;;;;;;;;;27.00;25.25;;;;;17.94;60.80;101785.88;4952901;28;45667;-59
2021/10/18 11:59:47;;;;;;;;;31.25;25.50;;;;;17.99;60.65;101785.50;4949668;28;45194;-60
2021/10/18 12:02:24;;;;;;;;;26.00;24.00;;;;;18.00;60.47;101787.22;4949543;28;45431;-60
2021/10/18 12:04:57;;;;;;;;;36.75;27.25;;;;;18.03;60.84;101784.34;4947475;28;45544;-63
2021/10/18 12:07:48;;;;;;;;;29.00;25.75;;;;;18.09;60.48;101768.75;4951957;28;45231;-61
2021/10/18 12:10:19;;;;;;;;;24.25;20.75;;;;;18.19;60.64;101776.91;4950155;28;45582;-60
2021/10/18 12:13:14;;;;;;;;;23.50;22.25;;;;;18.32;60.97;101776.81;4950627;28;45294;-61
2021/10/18 12:15:51;;;;;;;;;22.25;21.25;;;;;18.40;61.03;101769.94;4951365;28;45363;-61
2021/10/18 12:18:26;;;;;;;;;19.50;17.75;;;;;18.46;60.97;101771.28;4951865;28;45406;-60
2021/10/18 12:20:54;;;;;;;;;23.75;20.50;;;;;18.50;60.52;101764.75;4949581;28;45590;-60
2021/10/18 12:23:29;;;;;;;;;20.50;19.00;;;;;18.52;60.36;101757.50;4952021;28;45467;-59